sensor_id;sensor_type;location;lat;lon;timestamp;pressure;altitude;pressure_sealevel;temperature;humidity
69796;BME280;57073;45.650;9.612;2023-04-30T00:04:18;99119.56;;;16.41;59.07
69796;BME280;57073;45.650;9.612;2023-04-30T00:09:19;99116.38;;;16.23;60.21
69796;BME280;57073;45.650;9.612;2023-04-30T00:14:19;99116.38;;;16.23;59.92
69796;BME280;57073;45.650;9.612;2023-04-30T00:19:20;99112.81;;;16.28;59.47
69796;BME280;57073;45.650;9.612;2023-04-30T00:24:20;99115.28;;;16.29;59.84
69796;BME280;57073;45.650;9.612;2023-04-30T00:29:20;99116.94;;;16.25;60.17
69796;BME280;57073;45.650;9.612;2023-04-30T00:34:21;99114.69;;;16.32;59.58
69796;BME280;57073;45.650;9.612;2023-04-30T00:39:21;99106.78;;;16.36;59.22
69796;BME280;57073;45.650;9.612;2023-04-30T00:44:21;99105.22;;;16.20;59.59
69796;BME280;57073;45.650;9.612;2023-04-30T00:49:22;99098.69;;;16.31;59.02
69796;BME280;57073;45.650;9.612;2023-04-30T00:54:23;99088.69;;;16.11;59.60
69796;BME280;57073;45.650;9.612;2023-04-30T00:59:24;99091.88;;;16.23;59.52
69796;BME280;57073;45.650;9.612;2023-04-30T01:04:25;99082.38;;;16.21;59.47
69796;BME280;57073;45.650;9.612;2023-04-30T01:09:27;99076.00;;;15.91;59.88
69796;BME280;57073;45.650;9.612;2023-04-30T01:14:32;99079.75;;;16.00;59.50
69796;BME280;57073;45.650;9.612;2023-04-30T01:19:41;99083.84;;;15.92;59.01
69796;BME280;57073;45.650;9.612;2023-04-30T01:25:05;99090.38;;;15.96;59.32
69796;BME280;57073;45.650;9.612;2023-04-30T01:30:06;99081.97;;;15.88;59.65
69796;BME280;57073;45.650;9.612;2023-04-30T01:35:08;99087.69;;;15.86;59.96
69796;BME280;57073;45.650;9.612;2023-04-30T01:55:36;99096.91;;;15.90;59.12
69796;BME280;57073;45.650;9.612;2023-04-30T02:00:40;99086.81;;;15.96;58.87
69796;BME280;57073;45.650;9.612;2023-04-30T02:05:40;99088.72;;;16.01;58.62
69796;BME280;57073;45.650;9.612;2023-04-30T02:10:41;99092.00;;;15.92;59.05
69796;BME280;57073;45.650;9.612;2023-04-30T02:15:41;99087.63;;;16.02;58.21
69796;BME280;57073;45.650;9.612;2023-04-30T02:20:41;99082.75;;;15.99;58.21
69796;BME280;57073;45.650;9.612;2023-04-30T02:25:42;99077.03;;;16.00;58.40
69796;BME280;57073;45.650;9.612;2023-04-30T02:30:43;99082.78;;;15.93;58.78
69796;BME280;57073;45.650;9.612;2023-04-30T02:35:44;99084.09;;;15.96;58.37
69796;BME280;57073;45.650;9.612;2023-04-30T02:40:45;99082.78;;;15.88;59.49
69796;BME280;57073;45.650;9.612;2023-04-30T02:45:46;99083.84;;;15.92;58.56
69796;BME280;57073;45.650;9.612;2023-04-30T02:50:46;99090.09;;;15.98;58.17
69796;BME280;57073;45.650;9.612;2023-04-30T02:55:46;99079.25;;;15.93;59.60
69796;BME280;57073;45.650;9.612;2023-04-30T03:00:47;99088.47;;;15.92;59.93
69796;BME280;57073;45.650;9.612;2023-04-30T03:05:47;99089.84;;;15.79;60.18
69796;BME280;57073;45.650;9.612;2023-04-30T03:10:47;99096.09;;;15.74;59.62
69796;BME280;57073;45.650;9.612;2023-04-30T03:15:48;99096.97;;;15.59;60.64
69796;BME280;57073;45.650;9.612;2023-04-30T03:20:48;99094.81;;;15.56;60.46
69796;BME280;57073;45.650;9.612;2023-04-30T03:25:48;99094.25;;;15.59;60.15
69796;BME280;57073;45.650;9.612;2023-04-30T03:30:49;99095.88;;;15.55;60.57
69796;BME280;57073;45.650;9.612;2023-04-30T03:35:49;99093.44;;;15.54;60.60
69796;BME280;57073;45.650;9.612;2023-04-30T03:40:50;99092.09;;;15.56;60.36
69796;BME280;57073;45.650;9.612;2023-04-30T03:45:51;99085.81;;;15.56;60.89
69796;BME280;57073;45.650;9.612;2023-04-30T03:50:51;99090.44;;;15.61;60.98
69796;BME280;57073;45.650;9.612;2023-04-30T03:55:52;99092.91;;;15.52;60.50
69796;BME280;57073;45.650;9.612;2023-04-30T04:00:53;99099.69;;;15.54;60.76
69796;BME280;57073;45.650;9.612;2023-04-30T04:05:53;99107.81;;;15.54;61.28
69796;BME280;57073;45.650;9.612;2023-04-30T04:10:54;99109.47;;;15.61;60.77
69796;BME280;57073;45.650;9.612;2023-04-30T04:15:54;99108.13;;;15.53;61.64
69796;BME280;57073;45.650;9.612;2023-04-30T04:20:55;99110.59;;;15.49;61.26
69796;BME280;57073;45.650;9.612;2023-04-30T04:25:55;99109.25;;;15.36;61.57
69796;BME280;57073;45.650;9.612;2023-04-30T04:30:56;99116.81;;;15.34;62.38
69796;BME280;57073;45.650;9.612;2023-04-30T04:35:57;99125.53;;;15.31;62.66
69796;BME280;57073;45.650;9.612;2023-04-30T04:40:57;99123.09;;;15.25;63.25
69796;BME280;57073;45.650;9.612;2023-04-30T04:45:58;99142.91;;;15.15;63.22
69796;BME280;57073;45.650;9.612;2023-04-30T04:50:58;99136.63;;;14.94;64.70
69796;BME280;57073;45.650;9.612;2023-04-30T04:55:59;99139.91;;;14.96;64.71
69796;BME280;57073;45.650;9.612;2023-04-30T05:00:59;99146.94;;;14.87;65.41
69796;BME280;57073;45.650;9.612;2023-04-30T05:06:00;99144.19;;;14.81;65.76
69796;BME280;57073;45.650;9.612;2023-04-30T05:11:00;99152.88;;;14.78;65.82
69796;BME280;57073;45.650;9.612;2023-04-30T05:16:01;99159.09;;;14.74;65.56
69796;BME280;57073;45.650;9.612;2023-04-30T05:21:01;99164.59;;;14.89;65.14
69796;BME280;57073;45.650;9.612;2023-04-30T05:26:03;99173.56;;;14.95;65.25
69796;BME280;57073;45.650;9.612;2023-04-30T05:31:04;99171.91;;;14.89;64.93
69796;BME280;57073;45.650;9.612;2023-04-30T05:36:05;99174.88;;;14.77;64.97
69796;BME280;57073;45.650;9.612;2023-04-30T05:41:05;99174.03;;;14.81;65.08
69796;BME280;57073;45.650;9.612;2023-04-30T05:46:05;99178.44;;;14.88;64.38
69796;BME280;57073;45.650;9.612;2023-04-30T05:51:06;99172.19;;;14.87;64.78
69796;BME280;57073;45.650;9.612;2023-04-30T05:56:06;99168.09;;;14.85;64.54
69796;BME280;57073;45.650;9.612;2023-04-30T06:01:07;99169.16;;;14.83;64.45
69796;BME280;57073;45.650;9.612;2023-04-30T06:06:10;99168.34;;;14.78;65.46
69796;BME280;57073;45.650;9.612;2023-04-30T06:11:13;99168.56;;;14.61;67.15
69796;BME280;57073;45.650;9.612;2023-04-30T06:16:14;99165.91;;;14.71;66.23
69796;BME280;57073;45.650;9.612;2023-04-30T06:21:14;99168.69;;;14.92;65.28
69796;BME280;57073;45.650;9.612;2023-04-30T06:26:15;99170.56;;;14.96;64.35
69796;BME280;57073;45.650;9.612;2023-04-30T06:31:15;99174.16;;;15.23;64.05
69796;BME280;57073;45.650;9.612;2023-04-30T06:36:15;99178.50;;;15.49;63.22
69796;BME280;57073;45.650;9.612;2023-04-30T06:41:16;99172.50;;;15.68;61.66
69796;BME280;57073;45.650;9.612;2023-04-30T06:46:17;99181.13;;;16.26;61.79
69796;BME280;57073;45.650;9.612;2023-04-30T06:51:17;99178.88;;;16.49;59.61
69796;BME280;57073;45.650;9.612;2023-04-30T06:56:17;99181.91;;;16.37;56.00
69796;BME280;57073;45.650;9.612;2023-04-30T07:01:18;99179.38;;;16.56;56.70
69796;BME280;57073;45.650;9.612;2023-04-30T07:06:18;99183.94;;;16.76;56.66
69796;BME280;57073;45.650;9.612;2023-04-30T07:11:19;99184.44;;;17.23;55.15
69796;BME280;57073;45.650;9.612;2023-04-30T07:16:20;99188.47;;;17.70;55.51
69796;BME280;57073;45.650;9.612;2023-04-30T07:21:20;99186.13;;;18.12;53.27
69796;BME280;57073;45.650;9.612;2023-04-30T07:26:21;99188.44;;;18.72;53.48
69796;BME280;57073;45.650;9.612;2023-04-30T07:31:24;99194.84;;;19.05;51.10
69796;BME280;57073;45.650;9.612;2023-04-30T07:36:25;99195.78;;;18.95;50.28
69796;BME280;57073;45.650;9.612;2023-04-30T07:41:26;99198.97;;;19.21;49.93
69796;BME280;57073;45.650;9.612;2023-04-30T07:46:26;99196.94;;;19.65;50.72
69796;BME280;57073;45.650;9.612;2023-04-30T07:51:27;99196.97;;;19.79;49.70
69796;BME280;57073;45.650;9.612;2023-04-30T07:56:28;99191.31;;;19.89;49.31
69796;BME280;57073;45.650;9.612;2023-04-30T08:01:28;99195.50;;;20.01;48.60
69796;BME280;57073;45.650;9.612;2023-04-30T08:06:28;99194.00;;;20.08;48.25
69796;BME280;57073;45.650;9.612;2023-04-30T08:11:29;99196.84;;;19.70;48.19
69796;BME280;57073;45.650;9.612;2023-04-30T08:16:29;99202.63;;;20.15;48.21
69796;BME280;57073;45.650;9.612;2023-04-30T08:21:30;99197.03;;;20.34;47.88
69796;BME280;57073;45.650;9.612;2023-04-30T08:26:30;99195.81;;;20.54;47.11
69796;BME280;57073;45.650;9.612;2023-04-30T08:31:30;99201.31;;;20.54;46.19
69796;BME280;57073;45.650;9.612;2023-04-30T08:36:31;99196.63;;;20.27;47.12
69796;BME280;57073;45.650;9.612;2023-04-30T08:41:32;99199.16;;;20.65;46.66
69796;BME280;57073;45.650;9.612;2023-04-30T08:46:36;99201.53;;;20.44;45.59
69796;BME280;57073;45.650;9.612;2023-04-30T08:51:38;99194.88;;;20.04;45.63
69796;BME280;57073;45.650;9.612;2023-04-30T08:56:39;99206.47;;;20.14;45.13
69796;BME280;57073;45.650;9.612;2023-04-30T09:01:40;99209.72;;;20.30;46.60
69796;BME280;57073;45.650;9.612;2023-04-30T09:06:42;99202.97;;;19.95;44.19
69796;BME280;57073;45.650;9.612;2023-04-30T09:11:42;99194.34;;;19.88;44.45
69796;BME280;57073;45.650;9.612;2023-04-30T09:16:47;99193.00;;;20.18;45.54
69796;BME280;57073;45.650;9.612;2023-04-30T09:21:48;99194.31;;;20.34;45.23
69796;BME280;57073;45.650;9.612;2023-04-30T09:26:49;99189.94;;;19.59;44.32
69796;BME280;57073;45.650;9.612;2023-04-30T09:31:50;99188.19;;;19.96;44.14
69796;BME280;57073;45.650;9.612;2023-04-30T09:36:52;99188.69;;;19.98;44.72
69796;BME280;57073;45.650;9.612;2023-04-30T09:42:06;99179.50;;;19.75;43.07
69796;BME280;57073;45.650;9.612;2023-04-30T09:47:14;99182.53;;;18.40;46.23
69796;BME280;57073;45.650;9.612;2023-04-30T09:52:14;99179.31;;;19.38;45.79
69796;BME280;57073;45.650;9.612;2023-04-30T09:57:15;99180.81;;;19.31;45.43
69796;BME280;57073;45.650;9.612;2023-04-30T10:02:16;99189.00;;;18.93;46.10
69796;BME280;57073;45.650;9.612;2023-04-30T10:07:20;99188.25;;;19.06;46.48
69796;BME280;57073;45.650;9.612;2023-04-30T10:12:25;99178.88;;;19.31;46.53
69796;BME280;57073;45.650;9.612;2023-04-30T10:17:30;99177.56;;;18.91;46.00
69796;BME280;57073;45.650;9.612;2023-04-30T10:22:33;99179.25;;;19.25;45.65
69796;BME280;57073;45.650;9.612;2023-04-30T10:27:35;99169.50;;;19.37;47.03
69796;BME280;57073;45.650;9.612;2023-04-30T10:38:14;99155.53;;;19.20;46.42
69796;BME280;57073;45.650;9.612;2023-04-30T10:43:18;99147.91;;;19.36;46.33
69796;BME280;57073;45.650;9.612;2023-04-30T10:48:21;99140.91;;;19.11;46.71
69796;BME280;57073;45.650;9.612;2023-04-30T10:53:29;99139.34;;;19.43;46.09
69796;BME280;57073;45.650;9.612;2023-04-30T10:58:31;99136.00;;;19.46;46.99
69796;BME280;57073;45.650;9.612;2023-04-30T11:03:34;99132.63;;;19.82;46.50
69796;BME280;57073;45.650;9.612;2023-04-30T11:08:36;99123.72;;;19.90;46.64
69796;BME280;57073;45.650;9.612;2023-04-30T11:13:43;99129.50;;;19.88;46.15
69796;BME280;57073;45.650;9.612;2023-04-30T11:18:44;99129.00;;;19.53;46.20
69796;BME280;57073;45.650;9.612;2023-04-30T11:23:48;99115.25;;;19.45;46.46
69796;BME280;57073;45.650;9.612;2023-04-30T11:28:52;99112.94;;;19.52;46.22
69796;BME280;57073;45.650;9.612;2023-04-30T11:33:54;99108.53;;;19.18;46.63
69796;BME280;57073;45.650;9.612;2023-04-30T11:38:56;99109.31;;;19.05;46.74
69796;BME280;57073;45.650;9.612;2023-04-30T11:43:56;99108.69;;;19.08;46.92
69796;BME280;57073;45.650;9.612;2023-04-30T11:48:56;99108.56;;;18.99;47.00
69796;BME280;57073;45.650;9.612;2023-04-30T11:53:57;99106.88;;;18.84;47.56
69796;BME280;57073;45.650;9.612;2023-04-30T11:58:58;99110.72;;;18.64;46.47
69796;BME280;57073;45.650;9.612;2023-04-30T12:03:59;99107.19;;;18.63;47.40
69796;BME280;57073;45.650;9.612;2023-04-30T12:09:00;99101.72;;;18.82;46.56
69796;BME280;57073;45.650;9.612;2023-04-30T12:14:10;99105.94;;;18.75;46.74
69796;BME280;57073;45.650;9.612;2023-04-30T12:19:11;99101.50;;;18.98;45.43
69796;BME280;57073;45.650;9.612;2023-04-30T12:24:13;99098.97;;;19.01;46.35
69796;BME280;57073;45.650;9.612;2023-04-30T12:29:15;99095.44;;;19.01;45.11
69796;BME280;57073;45.650;9.612;2023-04-30T12:34:16;99086.59;;;19.23;45.22
69796;BME280;57073;45.650;9.612;2023-04-30T12:39:17;99086.09;;;19.21;44.97
69796;BME280;57073;45.650;9.612;2023-04-30T12:44:22;99087.28;;;18.63;44.95
69796;BME280;57073;45.650;9.612;2023-04-30T12:49:33;99081.09;;;19.28;44.00
69796;BME280;57073;45.650;9.612;2023-04-30T12:54:34;99083.09;;;19.36;44.81
69796;BME280;57073;45.650;9.612;2023-04-30T12:59:54;99079.16;;;19.10;45.91
69796;BME280;57073;45.650;9.612;2023-04-30T13:04:55;99072.09;;;19.23;44.71
69796;BME280;57073;45.650;9.612;2023-04-30T13:09:55;99068.78;;;18.93;45.37
69796;BME280;57073;45.650;9.612;2023-04-30T13:14:56;99064.19;;;19.07;44.94
69796;BME280;57073;45.650;9.612;2023-04-30T13:19:56;99067.72;;;19.08;43.03
69796;BME280;57073;45.650;9.612;2023-04-30T13:24:57;99070.78;;;18.87;44.59
69796;BME280;57073;45.650;9.612;2023-04-30T13:29:58;99063.81;;;18.95;43.20
69796;BME280;57073;45.650;9.612;2023-04-30T13:34:58;99049.88;;;18.96;43.30
69796;BME280;57073;45.650;9.612;2023-04-30T13:39:58;99054.63;;;18.72;44.44
69796;BME280;57073;45.650;9.612;2023-04-30T13:45:00;99042.91;;;18.52;43.98
69796;BME280;57073;45.650;9.612;2023-04-30T13:50:02;99050.03;;;18.86;44.10
69796;BME280;57073;45.650;9.612;2023-04-30T13:55:02;99052.44;;;18.74;44.60
69796;BME280;57073;45.650;9.612;2023-04-30T14:00:05;99051.66;;;18.68;44.46
69796;BME280;57073;45.650;9.612;2023-04-30T14:05:05;99051.97;;;18.86;43.75
69796;BME280;57073;45.650;9.612;2023-04-30T14:10:06;99050.81;;;19.06;43.76
69796;BME280;57073;45.650;9.612;2023-04-30T14:15:08;99064.91;;;18.61;43.13
69796;BME280;57073;45.650;9.612;2023-04-30T14:20:09;99049.84;;;18.63;43.38
69796;BME280;57073;45.650;9.612;2023-04-30T14:25:10;99059.06;;;18.68;42.98
69796;BME280;57073;45.650;9.612;2023-04-30T14:30:12;99049.91;;;18.58;42.73
69796;BME280;57073;45.650;9.612;2023-04-30T14:35:12;99054.72;;;18.67;41.76
69796;BME280;57073;45.650;9.612;2023-04-30T14:40:13;99053.59;;;18.68;41.75
69796;BME280;57073;45.650;9.612;2023-04-30T14:45:14;99047.78;;;18.74;42.02
69796;BME280;57073;45.650;9.612;2023-04-30T14:50:14;99047.78;;;19.07;42.13
69796;BME280;57073;45.650;9.612;2023-04-30T14:55:15;99048.34;;;18.90;42.05
69796;BME280;57073;45.650;9.612;2023-04-30T15:00:15;99057.66;;;18.51;42.69
69796;BME280;57073;45.650;9.612;2023-04-30T15:05:16;99069.91;;;18.73;42.28
69796;BME280;57073;45.650;9.612;2023-04-30T15:10:16;99062.16;;;17.99;44.90
69796;BME280;57073;45.650;9.612;2023-04-30T15:15:17;99071.31;;;18.08;45.14
69796;BME280;57073;45.650;9.612;2023-04-30T15:20:18;99076.25;;;18.49;46.70
69796;BME280;57073;45.650;9.612;2023-04-30T15:25:18;99063.84;;;18.38;47.20
69796;BME280;57073;45.650;9.612;2023-04-30T15:30:19;99061.75;;;18.30;47.33
69796;BME280;57073;45.650;9.612;2023-04-30T15:35:20;99072.53;;;18.40;46.79
69796;BME280;57073;45.650;9.612;2023-04-30T15:40:21;99075.91;;;18.32;46.59
69796;BME280;57073;45.650;9.612;2023-04-30T15:45:22;99073.78;;;18.29;46.29
69796;BME280;57073;45.650;9.612;2023-04-30T15:50:25;99077.81;;;18.12;46.14
69796;BME280;57073;45.650;9.612;2023-04-30T15:55:26;99076.19;;;18.11;46.51
69796;BME280;57073;45.650;9.612;2023-04-30T16:00:26;99072.44;;;18.07;46.37
69796;BME280;57073;45.650;9.612;2023-04-30T16:05:28;99074.69;;;18.00;46.63
69796;BME280;57073;45.650;9.612;2023-04-30T16:10:28;99073.13;;;17.94;46.86
69796;BME280;57073;45.650;9.612;2023-04-30T16:15:29;99077.00;;;17.87;47.11
69796;BME280;57073;45.650;9.612;2023-04-30T16:20:30;99066.97;;;17.83;47.70
69796;BME280;57073;45.650;9.612;2023-04-30T16:25:31;99067.97;;;17.68;46.58
69796;BME280;57073;45.650;9.612;2023-04-30T16:30:32;99074.03;;;17.60;46.33
69796;BME280;57073;45.650;9.612;2023-04-30T16:35:36;99066.41;;;17.62;46.50
69796;BME280;57073;45.650;9.612;2023-04-30T16:40:36;99070.13;;;17.71;46.07
69796;BME280;57073;45.650;9.612;2023-04-30T16:45:37;99068.72;;;17.44;46.53
69796;BME280;57073;45.650;9.612;2023-04-30T16:50:37;99064.06;;;17.16;47.33
69796;BME280;57073;45.650;9.612;2023-04-30T16:55:40;99074.28;;;17.34;46.81
69796;BME280;57073;45.650;9.612;2023-04-30T17:00:40;99084.28;;;17.09;46.29
69796;BME280;57073;45.650;9.612;2023-04-30T17:05:40;99078.38;;;17.02;46.74
69796;BME280;57073;45.650;9.612;2023-04-30T17:10:41;99069.97;;;16.94;46.90
69796;BME280;57073;45.650;9.612;2023-04-30T17:15:42;99081.28;;;17.11;46.14
69796;BME280;57073;45.650;9.612;2023-04-30T17:20:42;99082.09;;;16.72;46.91
69796;BME280;57073;45.650;9.612;2023-04-30T17:25:46;99079.91;;;17.14;46.01
69796;BME280;57073;45.650;9.612;2023-04-30T17:30:46;99091.47;;;17.29;46.34
69796;BME280;57073;45.650;9.612;2023-04-30T17:35:47;99087.75;;;17.20;45.93
69796;BME280;57073;45.650;9.612;2023-04-30T17:40:47;99090.31;;;17.06;46.89
69796;BME280;57073;45.650;9.612;2023-04-30T17:45:48;99083.09;;;17.21;46.81
69796;BME280;57073;45.650;9.612;2023-04-30T17:50:54;99086.13;;;17.19;46.45
69796;BME280;57073;45.650;9.612;2023-04-30T17:55:55;99088.00;;;17.24;46.46
69796;BME280;57073;45.650;9.612;2023-04-30T18:00:56;99094.66;;;17.07;46.09
69796;BME280;57073;45.650;9.612;2023-04-30T18:05:58;99097.59;;;17.16;46.70
69796;BME280;57073;45.650;9.612;2023-04-30T18:10:58;99099.59;;;17.05;46.45
69796;BME280;57073;45.650;9.612;2023-04-30T18:15:58;99097.97;;;17.04;46.90
69796;BME280;57073;45.650;9.612;2023-04-30T18:20:59;99095.44;;;16.73;47.21
69796;BME280;57073;45.650;9.612;2023-04-30T18:25:59;99101.84;;;16.93;46.69
69796;BME280;57073;45.650;9.612;2023-04-30T18:31:01;99101.84;;;16.93;47.14
69796;BME280;57073;45.650;9.612;2023-04-30T18:36:02;99102.09;;;16.97;46.57
69796;BME280;57073;45.650;9.612;2023-04-30T18:41:05;99114.91;;;16.96;46.70
69796;BME280;57073;45.650;9.612;2023-04-30T18:46:06;99110.81;;;16.99;46.90
69796;BME280;57073;45.650;9.612;2023-04-30T18:51:12;99106.78;;;16.91;47.68
69796;BME280;57073;45.650;9.612;2023-04-30T18:56:13;99113.28;;;16.95;48.88
69796;BME280;57073;45.650;9.612;2023-04-30T19:01:15;99113.06;;;16.86;50.21
69796;BME280;57073;45.650;9.612;2023-04-30T19:06:16;99113.88;;;16.87;49.91
69796;BME280;57073;45.650;9.612;2023-04-30T19:11:17;99119.41;;;16.77;50.16
69796;BME280;57073;45.650;9.612;2023-04-30T19:16:19;99123.75;;;16.72;50.80
69796;BME280;57073;45.650;9.612;2023-04-30T19:21:19;99130.56;;;16.70;51.92
69796;BME280;57073;45.650;9.612;2023-04-30T19:26:22;99126.81;;;16.61;51.52
69796;BME280;57073;45.650;9.612;2023-04-30T19:31:24;99135.78;;;16.61;51.96
69796;BME280;57073;45.650;9.612;2023-04-30T19:36:24;99144.81;;;16.57;52.66
69796;BME280;57073;45.650;9.612;2023-04-30T19:41:25;99151.16;;;16.31;52.94
69796;BME280;57073;45.650;9.612;2023-04-30T19:46:26;99149.19;;;16.52;53.32
69796;BME280;57073;45.650;9.612;2023-04-30T19:51:26;99152.19;;;16.51;52.05
69796;BME280;57073;45.650;9.612;2023-04-30T19:56:27;99151.69;;;16.39;51.81
69796;BME280;57073;45.650;9.612;2023-04-30T20:01:27;99146.53;;;16.32;51.63
69796;BME280;57073;45.650;9.612;2023-04-30T20:06:28;99142.47;;;16.29;52.31
69796;BME280;57073;45.650;9.612;2023-04-30T20:11:29;99152.84;;;16.22;52.05
69796;BME280;57073;45.650;9.612;2023-04-30T20:16:29;99144.13;;;16.25;52.84
69796;BME280;57073;45.650;9.612;2023-04-30T20:21:30;99149.28;;;16.27;51.58
69796;BME280;57073;45.650;9.612;2023-04-30T20:26:31;99146.25;;;16.33;51.47
69796;BME280;57073;45.650;9.612;2023-04-30T20:31:32;99152.84;;;16.27;51.94
69796;BME280;57073;45.650;9.612;2023-04-30T20:36:33;99151.72;;;16.28;51.70
69796;BME280;57073;45.650;9.612;2023-04-30T20:41:35;99151.47;;;16.25;52.17
69796;BME280;57073;45.650;9.612;2023-04-30T20:46:35;99162.09;;;16.16;51.79
69796;BME280;57073;45.650;9.612;2023-04-30T20:51:35;99155.06;;;16.10;52.60
69796;BME280;57073;45.650;9.612;2023-04-30T20:56:38;99149.88;;;16.13;52.86
69796;BME280;57073;45.650;9.612;2023-04-30T21:01:38;99153.66;;;16.12;53.10
69796;BME280;57073;45.650;9.612;2023-04-30T21:06:39;99145.25;;;16.14;52.88
69796;BME280;57073;45.650;9.612;2023-04-30T21:11:40;99151.53;;;16.14;52.66
69796;BME280;57073;45.650;9.612;2023-04-30T21:16:41;99152.88;;;16.12;52.25
69796;BME280;57073;45.650;9.612;2023-04-30T21:21:41;99152.06;;;16.17;52.69
69796;BME280;57073;45.650;9.612;2023-04-30T21:26:42;99156.16;;;16.04;51.96
69796;BME280;57073;45.650;9.612;2023-04-30T21:31:42;99158.03;;;16.13;51.54
69796;BME280;57073;45.650;9.612;2023-04-30T21:36:43;99151.53;;;15.99;53.16
69796;BME280;57073;45.650;9.612;2023-04-30T21:41:43;99155.59;;;16.02;52.53
69796;BME280;57073;45.650;9.612;2023-04-30T21:46:44;99148.00;;;16.04;52.63
69796;BME280;57073;45.650;9.612;2023-04-30T21:51:45;99142.53;;;16.09;51.42
69796;BME280;57073;45.650;9.612;2023-04-30T21:56:45;99149.88;;;16.13;52.26
69796;BME280;57073;45.650;9.612;2023-04-30T22:01:45;99158.00;;;16.24;50.75
69796;BME280;57073;45.650;9.612;2023-04-30T22:06:46;99152.84;;;16.22;50.47
69796;BME280;57073;45.650;9.612;2023-04-30T22:11:46;99144.97;;;16.15;51.43
69796;BME280;57073;45.650;9.612;2023-04-30T22:16:48;99138.72;;;16.10;51.05
69796;BME280;57073;45.650;9.612;2023-04-30T22:21:48;99143.63;;;16.13;50.90
69796;BME280;57073;45.650;9.612;2023-04-30T22:26:49;99138.44;;;16.17;51.27
69796;BME280;57073;45.650;9.612;2023-04-30T22:31:49;99142.22;;;16.21;51.42
69796;BME280;57073;45.650;9.612;2023-04-30T22:36:50;99131.09;;;16.17;50.65
69796;BME280;57073;45.650;9.612;2023-04-30T22:41:51;99135.66;;;16.27;51.25
69796;BME280;57073;45.650;9.612;2023-04-30T22:46:54;99141.97;;;16.17;51.18
69796;BME280;57073;45.650;9.612;2023-04-30T22:51:57;99133.28;;;16.20;51.59
69796;BME280;57073;45.650;9.612;2023-04-30T22:56:57;99142.00;;;16.12;51.36
69796;BME280;57073;45.650;9.612;2023-04-30T23:01:58;99132.75;;;16.13;51.31
69796;BME280;57073;45.650;9.612;2023-04-30T23:06:59;99128.63;;;16.21;51.74
69796;BME280;57073;45.650;9.612;2023-04-30T23:11:59;99130.31;;;16.06;51.27
69796;BME280;57073;45.650;9.612;2023-04-30T23:17:00;99133.84;;;16.07;51.58
69796;BME280;57073;45.650;9.612;2023-04-30T23:22:00;99134.69;;;16.07;51.53
69796;BME280;57073;45.650;9.612;2023-04-30T23:27:01;99133.31;;;16.00;51.97
69796;BME280;57073;45.650;9.612;2023-04-30T23:32:02;99132.50;;;15.99;51.62
69796;BME280;57073;45.650;9.612;2023-04-30T23:37:03;99126.28;;;15.88;51.31
69796;BME280;57073;45.650;9.612;2023-04-30T23:42:03;99130.63;;;15.94;51.20
69796;BME280;57073;45.650;9.612;2023-04-30T23:47:04;99119.75;;;15.94;51.75
69796;BME280;57073;45.650;9.612;2023-04-30T23:52:05;99124.09;;;15.85;52.50
69796;BME280;57073;45.650;9.612;2023-04-30T23:57:06;99119.78;;;15.89;52.72
